CheckWX is a tool to help pilots better visualize weather data.  It is not intended as a substitute for an official pre-flight weather briefing.

01:05:47 UTC

LLBG TAF
Ben Gurion International Airport
Tel Aviv, Israel
TAF LLBG 192306Z 2000/2024 15004KT CAVOK BECMG 2007/2009 30012KT BECMG 2014/2016 34005KT 9999 FEW025 BECMG 2019/2021 15004KT SCT018 TX32/2012Z TN22/2003Z

Aug-20@
00:00 UTC

Aug-20 @ 00:00 UTC

Aug-20@
07:00 UTC

Aug-20 @ 07:00 UTC

TAF LLBG 192306Z 2000/2024 15004KT CAVOK
Wind
  • 150° at 4 KTS
Conditions
No significant weather
Cloud Levels
  • No significant clouds

Aug-20@
07:00 UTC

Aug-20 @ 07:00 UTC

Aug-20@
14:00 UTC

Aug-20 @ 14:00 UTC

BECMG 2007/2009 30012KT

Becoming

Becoming Conditions expected by Tue, Aug 20, 2019 @ 09:00 UTC

Wind
  • 300° at 12 KTS
Conditions
No significant weather
Cloud Levels
  • No significant clouds

Aug-20@
14:00 UTC

Aug-20 @ 14:00 UTC

Aug-20@
19:00 UTC

Aug-20 @ 19:00 UTC

BECMG 2014/2016 34005KT 9999 FEW025

Becoming

Becoming Conditions expected by Tue, Aug 20, 2019 @ 16:00 UTC

Wind
  • 340° at 5 KTS
Conditions
No significant weather
Cloud Levels
  • Few at 2,500' AGL

Aug-20@
19:00 UTC

Aug-20 @ 19:00 UTC

Aug-21@
00:00 UTC

Aug-21 @ 00:00 UTC

BECMG 2019/2021 15004KT SCT018 TX32/2012Z TN22/2003Z

Becoming

Becoming Conditions expected by Tue, Aug 20, 2019 @ 21:00 UTC

Wind
  • 150° at 4 KTS
Conditions
No significant weather
Cloud Levels
  • Scattered at 1,800' AGL